createdAt,value
2018-05-03T00:00:51.145Z,6.83
2018-05-03T00:03:18.697Z,7.20
2018-05-03T00:05:46.302Z,7.20
2018-05-03T00:08:13.854Z,7.10
2018-05-03T00:10:41.444Z,6.90
2018-05-03T00:13:09.025Z,6.83
2018-05-03T00:15:36.864Z,7.83
2018-05-03T00:18:04.418Z,8.07
2018-05-03T00:20:32.182Z,7.03
2018-05-03T00:22:59.732Z,7.87
2018-05-03T00:25:27.281Z,7.33
2018-05-03T00:27:54.859Z,7.23
2018-05-03T00:30:22.386Z,7.33
2018-05-03T00:32:49.938Z,7.43
2018-05-03T00:35:17.632Z,7.23
2018-05-03T00:37:45.185Z,7.30
2018-05-03T00:40:12.727Z,7.47
2018-05-03T00:42:40.350Z,7.27
2018-05-03T00:45:07.987Z,7.77
2018-05-03T00:47:35.472Z,7.43
2018-05-03T00:50:03.217Z,7.87
2018-05-03T00:52:30.759Z,8.07
2018-05-03T00:54:58.310Z,7.53
2018-05-03T00:57:26.847Z,7.20
2018-05-03T00:59:54.388Z,8.07
2018-05-03T01:02:21.955Z,7.70
2018-05-03T01:04:49.667Z,7.90
2018-05-03T01:07:17.203Z,7.73
2018-05-03T01:09:45.229Z,8.47
2018-05-03T01:12:13.132Z,7.93
2018-05-03T01:14:40.674Z,7.80
2018-05-03T01:17:08.222Z,7.80
2018-05-03T01:19:35.820Z,6.80
2018-05-03T01:22:03.376Z,7.97
2018-05-03T01:24:30.940Z,7.27
2018-05-03T01:26:58.683Z,7.60
2018-05-03T01:29:26.255Z,8.37
2018-05-03T01:31:53.804Z,7.93
2018-05-03T01:34:21.533Z,8.50
2018-05-03T01:36:49.080Z,7.97
2018-05-03T01:39:16.636Z,7.53
2018-05-03T01:41:44.209Z,8.83
2018-05-03T01:44:11.764Z,8.37
2018-05-03T01:46:39.315Z,7.93
2018-05-03T01:49:07.200Z,9.57
2018-05-03T01:51:34.739Z,8.57
2018-05-03T01:54:02.280Z,8.50
2018-05-03T01:56:29.836Z,8.60
2018-05-03T01:58:57.396Z,8.60
2018-05-03T02:01:24.960Z,8.00
2018-05-03T02:03:52.713Z,7.60
2018-05-03T02:06:20.294Z,8.17
2018-05-03T02:08:47.861Z,8.13
2018-05-03T02:11:15.588Z,8.87
2018-05-03T02:13:43.150Z,8.67
2018-05-03T02:16:10.711Z,8.97
2018-05-03T02:18:38.557Z,8.10
2018-05-03T02:21:06.139Z,7.27
2018-05-03T02:23:33.674Z,6.90
2018-05-03T02:26:01.242Z,7.57
2018-05-03T02:28:28.800Z,7.50
2018-05-03T02:30:56.345Z,7.17
2018-05-03T02:33:23.929Z,8.37
2018-05-03T02:35:51.480Z,7.70
2018-05-03T02:38:19.020Z,9.00
2018-05-03T02:40:46.687Z,8.20
2018-05-03T02:43:14.219Z,8.40
2018-05-03T02:45:41.770Z,7.27
2018-05-03T02:48:09.364Z,7.17
2018-05-03T02:50:36.924Z,7.00
2018-05-03T02:53:04.461Z,6.37
2018-05-03T02:55:32.358Z,6.60
2018-05-03T02:58:17.149Z,6.67
2018-05-03T03:01:02.168Z,7.17
2018-05-03T03:03:47.087Z,7.43
2018-05-03T03:06:31.832Z,6.93
2018-05-03T03:09:15.692Z,8.13
2018-05-03T03:12:00.637Z,9.10
2018-05-03T03:14:45.609Z,9.33
2018-05-03T03:17:30.441Z,8.87
2018-05-03T03:20:15.362Z,11.20
2018-05-03T03:23:00.123Z,10.13
2018-05-03T03:29:05.630Z,11.23
2018-05-03T03:31:50.362Z,11.03
2018-05-03T03:34:23.628Z,10.67
2018-05-03T03:40:17.318Z,10.03
2018-05-03T03:45:49.879Z,9.50
2018-05-03T03:48:17.461Z,9.07
2018-05-03T03:50:45.019Z,9.50
2018-05-03T03:53:12.677Z,9.17
2018-05-03T03:55:40.163Z,8.23
2018-05-03T03:58:07.755Z,9.17
2018-05-03T04:00:35.351Z,8.67
2018-05-03T04:03:02.909Z,9.00
2018-05-03T04:05:30.511Z,8.30
2018-05-03T04:07:58.054Z,8.10
2018-05-03T04:10:25.600Z,8.13
2018-05-03T04:12:53.175Z,8.53
2018-05-03T04:15:20.722Z,8.73
2018-05-03T04:18:00.141Z,9.23
2018-05-03T04:20:46.205Z,9.00
2018-05-03T04:26:18.667Z,10.30
2018-05-03T04:28:46.804Z,10.47
2018-05-03T04:31:14.368Z,9.73
2018-05-03T04:33:41.936Z,10.30
2018-05-03T04:36:09.763Z,10.87
2018-05-03T04:38:37.307Z,9.93
2018-05-03T04:41:04.878Z,10.47
2018-05-03T04:43:32.607Z,12.97
2018-05-03T04:46:00.207Z,10.23
2018-05-03T04:48:27.773Z,11.03
2018-05-03T04:50:55.372Z,11.63
2018-05-03T04:53:22.921Z,11.47
2018-05-03T04:55:50.469Z,10.20
2018-05-03T04:58:18.059Z,11.07
2018-05-03T05:00:45.617Z,10.77
2018-05-03T05:03:13.167Z,10.43
2018-05-03T05:05:41.032Z,11.02
2018-05-03T05:08:08.596Z,11.48
2018-05-03T05:10:36.203Z,11.57
2018-05-03T05:13:03.748Z,11.48
2018-05-03T05:15:31.308Z,10.73
2018-05-03T05:17:58.953Z,10.55
2018-05-03T05:20:26.491Z,11.00
2018-05-03T05:22:54.042Z,12.60
2018-05-03T05:25:21.591Z,12.33
2018-05-03T05:27:49.176Z,13.77
2018-05-03T05:30:16.994Z,12.60
2018-05-03T05:32:44.548Z,11.93
2018-05-03T05:35:12.129Z,12.47
2018-05-03T05:37:39.681Z,11.97
2018-05-03T05:40:07.260Z,12.33
2018-05-03T05:42:34.859Z,12.30
2018-05-03T05:45:02.416Z,12.27
2018-05-03T05:47:29.955Z,12.23
2018-05-03T05:49:57.739Z,11.77
2018-05-03T05:52:25.298Z,13.97
2018-05-03T05:54:52.874Z,12.20
2018-05-03T05:57:20.611Z,12.50
2018-05-03T05:59:48.170Z,13.17
2018-05-03T06:02:15.775Z,13.37
2018-05-03T06:04:43.346Z,15.90
2018-05-03T06:07:10.935Z,19.77
2018-05-03T06:09:38.501Z,13.23
2018-05-03T06:12:06.199Z,22.47
2018-05-03T06:14:33.771Z,14.20
2018-05-03T06:17:01.336Z,12.57
2018-05-03T06:19:29.219Z,13.30
2018-05-03T06:21:56.826Z,14.00
2018-05-03T06:24:24.382Z,13.37
2018-05-03T06:26:51.981Z,11.90
2018-05-03T06:29:19.527Z,11.43
2018-05-03T06:31:47.080Z,13.37
2018-05-03T06:34:14.665Z,12.00
2018-05-03T06:36:42.223Z,11.83
2018-05-03T06:39:09.789Z,12.33
2018-05-03T06:41:37.370Z,10.73
2018-05-03T06:44:04.956Z,11.90
2018-05-03T06:46:32.512Z,11.20
2018-05-03T06:49:00.104Z,11.60
2018-05-03T06:51:27.692Z,11.27
2018-05-03T06:53:55.250Z,11.73
2018-05-03T06:56:22.849Z,11.77
2018-05-03T06:58:50.432Z,11.80
2018-05-03T07:01:17.975Z,22.87
2018-05-03T07:03:45.566Z,11.47
2018-05-03T07:06:13.123Z,13.90
2018-05-03T07:08:40.680Z,11.77
2018-05-03T07:11:08.279Z,10.90
2018-05-03T07:13:35.847Z,11.40
2018-05-03T07:16:03.602Z,12.20
2018-05-03T07:18:31.263Z,30.23
2018-05-03T07:20:58.812Z,12.00
2018-05-03T07:23:26.373Z,33.77
2018-05-03T07:25:54.189Z,11.90
2018-05-03T07:28:21.735Z,11.10
2018-05-03T07:30:49.316Z,12.40
2018-05-03T07:33:17.007Z,10.47
2018-05-03T07:35:44.560Z,11.67
2018-05-03T07:38:12.108Z,10.50
2018-05-03T07:40:39.783Z,28.50
2018-05-03T07:43:07.349Z,19.30
2018-05-03T07:45:34.904Z,32.93
2018-05-03T07:48:02.561Z,11.63
2018-05-03T07:50:30.143Z,11.63
2018-05-03T07:52:57.687Z,11.03
2018-05-03T07:55:25.425Z,10.10
2018-05-03T07:57:52.977Z,11.60
2018-05-03T08:00:20.532Z,13.93
2018-05-03T08:02:48.259Z,11.00
2018-05-03T08:05:15.818Z,13.70
2018-05-03T08:07:43.356Z,11.97
2018-05-03T08:10:10.912Z,12.83
2018-05-03T08:12:38.467Z,16.57
2018-05-03T08:15:06.235Z,10.33
2018-05-03T08:17:33.790Z,10.53
2018-05-03T08:20:01.350Z,10.33
2018-05-03T08:22:29.240Z,12.67
2018-05-03T08:24:56.790Z,8.47
2018-05-03T08:27:24.388Z,12.10
2018-05-03T08:29:52.070Z,10.63
2018-05-03T08:32:19.633Z,7.63
2018-05-03T08:34:47.189Z,9.30
2018-05-03T08:37:14.910Z,7.27
2018-05-03T08:39:42.458Z,8.50
2018-05-03T08:42:10.020Z,7.93
2018-05-03T08:44:37.591Z,8.33
2018-05-03T08:47:05.141Z,7.20
2018-05-03T08:49:32.751Z,7.07
2018-05-03T08:52:00.423Z,7.23
2018-05-03T08:54:27.982Z,7.87
2018-05-03T08:56:55.535Z,7.87
2018-05-03T08:59:23.257Z,8.63
2018-05-03T09:01:50.850Z,8.77
2018-05-03T09:04:18.372Z,7.93
2018-05-03T09:06:45.964Z,8.40
2018-05-03T09:09:13.517Z,7.17
2018-05-03T09:11:41.092Z,7.40
2018-05-03T09:14:08.668Z,7.70
2018-05-03T09:16:36.228Z,7.37
2018-05-03T09:19:03.761Z,7.63
2018-05-03T09:21:31.326Z,8.20
2018-05-03T09:23:58.901Z,8.50
2018-05-03T09:26:26.454Z,6.97
2018-05-03T09:28:54.032Z,7.93
2018-05-03T09:31:21.573Z,7.13
2018-05-03T09:33:50.657Z,6.67
2018-05-03T09:36:18.507Z,7.27
2018-05-03T09:38:46.045Z,7.20
2018-05-03T09:41:13.664Z,7.50
2018-05-03T09:43:41.220Z,7.07
2018-05-03T09:46:08.743Z,7.20
2018-05-03T09:48:36.295Z,6.93
2018-05-03T09:51:04.023Z,6.80
2018-05-03T09:53:31.573Z,6.73
2018-05-03T09:55:59.187Z,7.27
2018-05-03T09:58:26.753Z,6.40
2018-05-03T10:07:36.526Z,7.37
2018-05-03T10:10:04.080Z,7.27
2018-05-03T10:12:31.625Z,7.50
2018-05-03T10:14:59.355Z,7.93
2018-05-03T10:17:26.922Z,7.80
2018-05-03T10:19:54.485Z,8.00
2018-05-03T10:22:22.052Z,8.10
2018-05-03T10:24:49.606Z,7.40
2018-05-03T10:27:17.148Z,7.50
2018-05-03T10:29:44.716Z,7.43
2018-05-03T10:32:12.252Z,6.63
2018-05-03T10:34:39.796Z,7.47
2018-05-03T10:37:07.379Z,7.20
2018-05-03T10:39:34.971Z,8.07
2018-05-03T10:42:02.642Z,7.07
2018-05-03T10:44:30.132Z,8.17
2018-05-03T10:46:57.690Z,7.97
2018-05-03T10:49:25.244Z,7.80
2018-05-03T10:51:52.820Z,8.53
2018-05-03T10:54:20.381Z,7.20
2018-05-03T10:56:47.924Z,7.40
2018-05-03T10:59:15.593Z,7.73
2018-05-03T11:01:43.165Z,7.07
2018-05-03T11:04:10.748Z,7.47
2018-05-03T11:06:38.467Z,7.80
2018-05-03T11:09:07.027Z,7.93
2018-05-03T11:11:34.565Z,6.90
2018-05-03T11:14:02.145Z,7.40
2018-05-03T11:16:29.720Z,6.80
2018-05-03T11:18:57.268Z,7.00
2018-05-03T11:21:24.807Z,7.33
2018-05-03T11:23:52.531Z,7.00
2018-05-03T11:26:20.084Z,7.27
2018-05-03T11:28:47.634Z,6.90
2018-05-03T11:31:15.357Z,7.17
2018-05-03T11:33:42.946Z,13.00
2018-05-03T11:36:10.496Z,12.57
2018-05-03T11:38:38.131Z,14.87
2018-05-03T11:41:05.712Z,11.47
2018-05-03T11:43:33.260Z,11.63
2018-05-03T11:46:00.853Z,11.93
2018-05-03T11:48:28.393Z,9.47
2018-05-03T11:50:55.935Z,7.63
2018-05-03T11:53:23.630Z,10.00
2018-05-03T11:55:51.198Z,8.97
2018-05-03T11:58:18.765Z,8.40
2018-05-03T12:00:46.395Z,9.00
2018-05-03T12:03:13.955Z,8.60
2018-05-03T12:05:41.505Z,10.73
2018-05-03T12:08:09.069Z,11.47
2018-05-03T12:10:36.608Z,11.20
2018-05-03T12:13:04.178Z,12.80
2018-05-03T12:15:31.794Z,10.23
2018-05-03T12:17:59.344Z,11.50
2018-05-03T12:20:26.940Z,11.73
2018-05-03T12:22:54.475Z,12.07
2018-05-03T12:25:22.037Z,14.73
2018-05-03T12:27:49.584Z,13.47
2018-05-03T12:30:17.197Z,11.40
2018-05-03T12:32:44.752Z,11.40
2018-05-03T12:35:12.287Z,12.30
2018-05-03T12:37:39.887Z,11.40
2018-05-03T12:40:07.449Z,11.80
2018-05-03T12:42:34.990Z,11.70
2018-05-03T12:45:03.505Z,12.33
2018-05-03T12:47:31.055Z,12.93
2018-05-03T12:49:58.603Z,12.63
2018-05-03T12:52:26.198Z,12.57
2018-05-03T12:54:53.736Z,13.37
2018-05-03T12:57:21.284Z,12.47
2018-05-03T12:59:48.919Z,11.90
2018-05-03T13:02:16.469Z,12.20
2018-05-03T13:04:44.015Z,12.10
2018-05-03T13:07:11.589Z,12.13
2018-05-03T13:09:39.138Z,12.57
2018-05-03T13:12:06.720Z,12.37
2018-05-03T13:14:34.308Z,11.77
2018-05-03T13:17:01.877Z,12.03
2018-05-03T13:19:29.433Z,12.87
2018-05-03T13:21:57.033Z,13.83
2018-05-03T13:24:24.584Z,12.07
2018-05-03T13:26:52.128Z,13.07
2018-05-03T13:29:19.717Z,12.23
2018-05-03T13:31:47.272Z,11.80
2018-05-03T13:34:14.829Z,11.73
2018-05-03T13:36:42.497Z,12.93
2018-05-03T13:39:10.051Z,12.47
2018-05-03T13:41:37.603Z,13.03
2018-05-03T13:44:05.272Z,12.50
2018-05-03T13:46:32.821Z,12.93
2018-05-03T13:49:00.354Z,13.40
2018-05-03T13:51:27.931Z,13.70
2018-05-03T13:53:55.488Z,13.13
2018-05-03T13:56:23.033Z,13.23
2018-05-03T13:58:50.632Z,13.30
2018-05-03T14:01:18.194Z,14.13
2018-05-03T14:03:45.742Z,15.03
2018-05-03T14:06:13.431Z,15.67
2018-05-03T14:08:40.976Z,14.60
2018-05-03T14:11:08.521Z,14.10
2018-05-03T14:13:36.093Z,14.53
2018-05-03T14:16:03.721Z,14.13
2018-05-03T14:18:31.273Z,14.13
2018-05-03T14:20:59.026Z,13.37
2018-05-03T14:23:26.530Z,14.13
2018-05-03T14:25:54.069Z,17.70
2018-05-03T14:28:21.652Z,18.33
2018-05-03T14:30:49.191Z,18.07
2018-05-03T14:33:16.747Z,18.23
2018-05-03T14:35:44.477Z,19.17
2018-05-03T14:38:12.034Z,20.50
2018-05-03T14:40:39.633Z,21.40
2018-05-03T14:43:07.312Z,19.73
2018-05-03T14:45:34.869Z,20.57
2018-05-03T14:48:02.427Z,20.47
2018-05-03T14:50:30.281Z,21.00
2018-05-03T14:52:57.832Z,26.90
2018-05-03T14:55:25.378Z,21.87
2018-05-03T14:57:52.954Z,21.77
2018-05-03T15:00:20.507Z,22.30
2018-05-03T15:02:48.062Z,17.97
2018-05-03T15:05:15.989Z,21.60
2018-05-03T15:07:43.547Z,15.67
2018-05-03T15:10:11.097Z,18.33
2018-05-03T15:12:38.867Z,16.13
2018-05-03T15:15:06.418Z,18.40
2018-05-03T15:17:34.206Z,17.20
2018-05-03T15:20:01.925Z,14.90
2018-05-03T15:22:29.472Z,13.80
2018-05-03T15:24:57.031Z,13.40
2018-05-03T15:27:24.759Z,12.73
2018-05-03T15:29:52.329Z,11.90
2018-05-03T15:32:19.886Z,12.13
2018-05-03T15:34:47.592Z,11.77
2018-05-03T15:37:15.141Z,12.30
2018-05-03T15:39:42.705Z,13.40
2018-05-03T15:42:10.418Z,12.17
2018-05-03T15:44:37.991Z,11.93
2018-05-03T15:47:05.564Z,12.00
2018-05-03T15:49:33.234Z,12.40
2018-05-03T15:52:00.777Z,12.67
2018-05-03T15:54:28.333Z,13.33
2018-05-03T15:56:56.210Z,12.90
2018-05-03T15:59:23.757Z,13.40
2018-05-03T16:01:51.320Z,13.63
2018-05-03T16:04:18.909Z,13.07
2018-05-03T16:06:46.457Z,14.17
2018-05-03T16:09:14.020Z,14.10
2018-05-03T16:11:41.786Z,14.13
2018-05-03T16:14:09.345Z,13.37
2018-05-03T16:16:36.942Z,13.33
2018-05-03T16:19:04.826Z,12.87
2018-05-03T16:21:32.386Z,13.67
2018-05-03T16:23:59.956Z,13.33
2018-05-03T16:26:27.643Z,13.33
2018-05-03T16:28:55.210Z,13.73
2018-05-03T16:31:22.791Z,13.53
2018-05-03T16:33:52.173Z,12.90
2018-05-03T16:36:19.712Z,13.17
2018-05-03T16:38:47.272Z,13.47
2018-05-03T16:41:14.858Z,14.27
2018-05-03T16:43:42.426Z,13.07
2018-05-03T16:46:09.973Z,13.83
2018-05-03T16:48:37.840Z,14.97
2018-05-03T16:51:05.418Z,15.40
2018-05-03T16:53:32.973Z,15.03
2018-05-03T16:56:00.855Z,14.73
2018-05-03T16:58:28.430Z,14.83
2018-05-03T17:00:55.995Z,15.83
2018-05-03T17:03:23.728Z,14.63
2018-05-03T17:05:51.267Z,14.73
2018-05-03T17:08:18.822Z,13.17
2018-05-03T17:10:46.391Z,13.03
2018-05-03T17:13:13.942Z,13.20
2018-05-03T17:15:41.532Z,13.50
2018-05-03T17:18:09.090Z,13.60
2018-05-03T17:20:36.636Z,16.70
2018-05-03T17:23:04.230Z,14.87
2018-05-03T17:25:31.789Z,13.70
2018-05-03T17:27:59.367Z,11.87
2018-05-03T17:30:26.973Z,11.63
2018-05-03T17:32:54.539Z,12.00
2018-05-03T17:35:22.097Z,11.57
2018-05-03T17:37:49.838Z,12.63
2018-05-03T17:40:17.513Z,13.27
2018-05-03T17:42:45.072Z,13.13
2018-05-03T17:45:12.947Z,12.50
2018-05-03T17:47:40.491Z,11.77
2018-05-03T17:50:08.077Z,13.03
2018-05-03T17:52:35.674Z,12.67
2018-05-03T17:55:03.248Z,11.97
2018-05-03T17:57:30.828Z,12.57
2018-05-03T17:59:58.542Z,16.40
2018-05-03T18:02:26.112Z,13.50
2018-05-03T18:04:53.694Z,12.40
2018-05-03T18:07:21.295Z,11.93
2018-05-03T18:09:48.845Z,13.23
2018-05-03T18:12:16.434Z,13.37
2018-05-03T18:14:44.152Z,12.73
2018-05-03T18:17:11.731Z,12.93
2018-05-03T18:19:39.284Z,12.60
2018-05-03T18:22:06.892Z,12.90
2018-05-03T18:24:34.460Z,13.57
2018-05-03T18:27:02.032Z,13.90
2018-05-03T18:29:29.954Z,13.87
2018-05-03T18:31:57.520Z,13.10
2018-05-03T18:34:25.097Z,13.17
2018-05-03T18:36:52.672Z,12.53
2018-05-03T18:39:20.250Z,12.87
2018-05-03T18:41:47.809Z,13.07
2018-05-03T18:44:15.415Z,12.23
2018-05-03T18:46:43.013Z,12.83
2018-05-03T18:49:10.692Z,13.13
2018-05-03T18:51:38.245Z,13.57
2018-05-03T18:54:05.894Z,12.97
2018-05-03T18:56:33.427Z,13.50
2018-05-03T18:59:01.181Z,13.30
2018-05-03T19:01:28.740Z,13.50
2018-05-03T19:03:56.338Z,14.47
2018-05-03T19:06:24.225Z,13.27
2018-05-03T19:08:51.834Z,13.50
2018-05-03T19:11:19.397Z,13.83
2018-05-03T19:13:46.982Z,12.80
2018-05-03T19:16:14.560Z,13.57
2018-05-03T19:18:42.103Z,13.73
2018-05-03T19:21:09.850Z,13.47
2018-05-03T19:23:37.408Z,14.67
2018-05-03T19:26:04.974Z,14.37
2018-05-03T19:28:32.713Z,14.97
2018-05-03T19:31:00.299Z,14.73
2018-05-03T19:33:27.857Z,15.60
2018-05-03T19:35:55.446Z,16.27
2018-05-03T19:38:23.004Z,16.13
2018-05-03T19:40:50.564Z,16.73
2018-05-03T19:43:18.149Z,16.17
2018-05-03T19:45:45.693Z,18.23
2018-05-03T19:48:13.256Z,19.10
2018-05-03T19:50:41.909Z,16.63
2018-05-03T19:53:09.455Z,16.97
2018-05-03T19:55:36.995Z,17.27
2018-05-03T19:58:04.604Z,16.37
2018-05-03T20:00:32.153Z,18.47
2018-05-03T20:02:59.704Z,18.00
2018-05-03T20:05:27.429Z,17.23
2018-05-03T20:07:54.980Z,19.47
2018-05-03T20:10:22.541Z,20.77
2018-05-03T20:12:50.124Z,23.43
2018-05-03T20:15:17.781Z,22.43
2018-05-03T20:17:45.278Z,23.90
2018-05-03T20:20:13.012Z,24.03
2018-05-03T20:22:40.562Z,24.20
2018-05-03T20:25:08.117Z,24.33
2018-05-03T20:27:35.847Z,25.00
2018-05-03T20:30:03.451Z,26.63
2018-05-03T20:32:30.986Z,24.87
2018-05-03T20:34:58.867Z,26.00
2018-05-03T20:37:26.420Z,27.27
2018-05-03T20:39:53.984Z,26.13
2018-05-03T20:42:21.560Z,26.50
2018-05-03T20:44:49.149Z,26.57
2018-05-03T20:47:16.724Z,25.43
2018-05-03T20:49:44.462Z,28.03
2018-05-03T20:52:12.028Z,28.03
2018-05-03T20:54:39.600Z,27.87
2018-05-03T20:57:07.386Z,28.03
2018-05-03T20:59:34.956Z,27.87
2018-05-03T21:02:02.529Z,26.47
2018-05-03T21:04:30.124Z,29.20
2018-05-03T21:06:57.670Z,28.90
2018-05-03T21:09:25.213Z,30.30
2018-05-03T21:11:52.892Z,29.20
2018-05-03T21:14:20.434Z,30.10
2018-05-03T21:16:47.975Z,28.87
2018-05-03T21:19:15.710Z,29.73
2018-05-03T21:21:43.303Z,31.10
2018-05-03T21:24:10.842Z,30.23
2018-05-03T21:26:38.500Z,30.33
2018-05-03T21:29:06.057Z,27.43
2018-05-03T21:31:33.600Z,28.80
2018-05-03T21:34:01.184Z,28.27
2018-05-03T21:36:28.778Z,27.70
2018-05-03T21:38:56.321Z,27.43
2018-05-03T21:41:24.054Z,28.40
2018-05-03T21:43:51.617Z,28.73
2018-05-03T21:46:19.177Z,28.67
2018-05-03T21:48:46.892Z,27.73
2018-05-03T21:51:14.444Z,26.80
2018-05-03T21:53:42.033Z,26.90
2018-05-03T21:56:09.916Z,26.83
2018-05-03T21:58:37.458Z,26.77
2018-05-03T22:01:05.033Z,26.03
2018-05-03T22:03:32.606Z,30.53
2018-05-03T22:06:00.165Z,27.27
2018-05-03T22:08:27.714Z,28.00
2018-05-03T22:10:55.262Z,26.17
2018-05-03T22:13:22.851Z,26.23
2018-05-03T22:15:50.427Z,26.63
2018-05-03T22:18:17.977Z,25.20
2018-05-03T22:20:45.542Z,23.40
2018-05-03T22:23:13.107Z,25.67
2018-05-03T22:25:40.644Z,25.47
2018-05-03T22:28:08.196Z,25.17
2018-05-03T22:30:35.769Z,26.23
2018-05-03T22:33:03.320Z,24.53
2018-05-03T22:35:30.877Z,25.70
2018-05-03T22:37:58.459Z,26.30
2018-05-03T22:40:26.005Z,24.03
2018-05-03T22:42:53.543Z,25.30
2018-05-03T22:45:21.263Z,25.53
2018-05-03T22:47:48.802Z,23.50
2018-05-03T22:50:16.361Z,25.83
2018-05-03T22:52:43.953Z,24.00
2018-05-03T22:55:11.507Z,25.97
2018-05-03T22:57:39.057Z,25.93
2018-05-03T23:00:06.818Z,25.27
2018-05-03T23:02:34.365Z,24.23
2018-05-03T23:05:01.916Z,24.90
2018-05-03T23:07:29.508Z,24.83
2018-05-03T23:09:57.082Z,24.30
2018-05-03T23:12:24.661Z,21.30
2018-05-03T23:14:52.262Z,23.10
2018-05-03T23:17:19.828Z,22.63
2018-05-03T23:19:47.368Z,21.57
2018-05-03T23:22:14.936Z,21.27
2018-05-03T23:24:42.476Z,20.60
2018-05-03T23:27:10.019Z,23.53
2018-05-03T23:29:37.741Z,23.83
2018-05-03T23:32:05.285Z,23.50
2018-05-03T23:34:32.823Z,25.43
2018-05-03T23:37:00.409Z,24.37
2018-05-03T23:39:27.959Z,24.93
2018-05-03T23:41:55.513Z,24.17
2018-05-03T23:44:23.206Z,24.37
2018-05-03T23:46:50.739Z,24.73
2018-05-03T23:49:18.279Z,25.10
2018-05-03T23:51:46.003Z,23.87
2018-05-03T23:54:13.556Z,22.23
2018-05-03T23:56:41.095Z,20.50
2018-05-03T23:59:08.680Z,20.90
